sensor_id;sensor_type;location;lat;lon;timestamp;pressure;altitude;pressure_sealevel;temperature;humidity
63281;BME280;49406;51.044;3.766;2023-04-25T00:01:43;101263.49;;;8.39;100.00
63281;BME280;49406;51.044;3.766;2023-04-25T00:04:16;101264.19;;;8.39;100.00
63281;BME280;49406;51.044;3.766;2023-04-25T00:06:50;101266.05;;;8.36;100.00
63281;BME280;49406;51.044;3.766;2023-04-25T00:09:26;101264.90;;;8.33;100.00
63281;BME280;49406;51.044;3.766;2023-04-25T00:11:59;101261.50;;;8.29;100.00
63281;BME280;49406;51.044;3.766;2023-04-25T00:14:34;101261.77;;;8.26;100.00
63281;BME280;49406;51.044;3.766;2023-04-25T00:17:09;101265.39;;;8.24;100.00
63281;BME280;49406;51.044;3.766;2023-04-25T00:19:44;101266.98;;;8.25;100.00
63281;BME280;49406;51.044;3.766;2023-04-25T00:22:19;101265.71;;;8.30;100.00
63281;BME280;49406;51.044;3.766;2023-04-25T00:24:53;101267.98;;;8.30;100.00
63281;BME280;49406;51.044;3.766;2023-04-25T00:27:30;101268.13;;;8.29;100.00
63281;BME280;49406;51.044;3.766;2023-04-25T00:30:06;101267.05;;;8.28;100.00
63281;BME280;49406;51.044;3.766;2023-04-25T00:32:41;101263.86;;;8.26;100.00
63281;BME280;49406;51.044;3.766;2023-04-25T00:35:15;101265.93;;;8.25;100.00
63281;BME280;49406;51.044;3.766;2023-04-25T00:37:50;101267.23;;;8.22;100.00
63281;BME280;49406;51.044;3.766;2023-04-25T00:40:24;101271.02;;;8.20;100.00
63281;BME280;49406;51.044;3.766;2023-04-25T00:42:59;101269.58;;;8.18;100.00
63281;BME280;49406;51.044;3.766;2023-04-25T00:45:34;101271.77;;;8.21;100.00
63281;BME280;49406;51.044;3.766;2023-04-25T00:48:12;101273.16;;;8.28;100.00
63281;BME280;49406;51.044;3.766;2023-04-25T00:50:52;101271.38;;;8.27;100.00
63281;BME280;49406;51.044;3.766;2023-04-25T00:53:28;101274.83;;;8.25;100.00
63281;BME280;49406;51.044;3.766;2023-04-25T00:56:05;101276.46;;;8.22;100.00
63281;BME280;49406;51.044;3.766;2023-04-25T00:58:40;101273.66;;;8.22;100.00
63281;BME280;49406;51.044;3.766;2023-04-25T01:01:14;101274.69;;;8.20;100.00
63281;BME280;49406;51.044;3.766;2023-04-25T01:03:50;101279.88;;;8.19;100.00
63281;BME280;49406;51.044;3.766;2023-04-25T01:06:25;101282.77;;;8.22;100.00
63281;BME280;49406;51.044;3.766;2023-04-25T01:09:00;101277.98;;;8.26;100.00
63281;BME280;49406;51.044;3.766;2023-04-25T01:14:10;101280.08;;;8.20;100.00
63281;BME280;49406;51.044;3.766;2023-04-25T01:16:44;101277.49;;;8.13;100.00
63281;BME280;49406;51.044;3.766;2023-04-25T01:19:19;101275.32;;;8.09;100.00
63281;BME280;49406;51.044;3.766;2023-04-25T01:21:54;101278.74;;;8.07;100.00
63281;BME280;49406;51.044;3.766;2023-04-25T01:24:29;101284.03;;;8.10;100.00
63281;BME280;49406;51.044;3.766;2023-04-25T01:27:04;101287.09;;;8.14;100.00
63281;BME280;49406;51.044;3.766;2023-04-25T01:29:39;101291.25;;;8.13;100.00
63281;BME280;49406;51.044;3.766;2023-04-25T01:32:14;101294.52;;;8.12;100.00
63281;BME280;49406;51.044;3.766;2023-04-25T01:34:49;101296.98;;;8.06;100.00
63281;BME280;49406;51.044;3.766;2023-04-25T01:37:24;101299.33;;;8.03;100.00
63281;BME280;49406;51.044;3.766;2023-04-25T01:39:58;101300.62;;;7.99;100.00
63281;BME280;49406;51.044;3.766;2023-04-25T01:42:33;101305.42;;;7.96;100.00
63281;BME280;49406;51.044;3.766;2023-04-25T01:45:10;101304.11;;;7.92;100.00
63281;BME280;49406;51.044;3.766;2023-04-25T01:47:47;101302.86;;;7.98;100.00
63281;BME280;49406;51.044;3.766;2023-04-25T01:50:22;101305.14;;;7.98;100.00
63281;BME280;49406;51.044;3.766;2023-04-25T01:52:57;101306.84;;;7.97;100.00
63281;BME280;49406;51.044;3.766;2023-04-25T01:55:32;101307.70;;;7.96;100.00
63281;BME280;49406;51.044;3.766;2023-04-25T01:58:06;101308.48;;;7.93;100.00
63281;BME280;49406;51.044;3.766;2023-04-25T02:00:42;101309.60;;;7.89;100.00
63281;BME280;49406;51.044;3.766;2023-04-25T02:03:17;101310.34;;;7.84;100.00
63281;BME280;49406;51.044;3.766;2023-04-25T02:05:52;101310.91;;;7.80;100.00
63281;BME280;49406;51.044;3.766;2023-04-25T02:08:26;101315.20;;;7.77;100.00
63281;BME280;49406;51.044;3.766;2023-04-25T02:11:01;101317.86;;;7.79;100.00
63281;BME280;49406;51.044;3.766;2023-04-25T02:13:36;101318.16;;;7.77;100.00
63281;BME280;49406;51.044;3.766;2023-04-25T02:16:10;101318.13;;;7.76;100.00
63281;BME280;49406;51.044;3.766;2023-04-25T02:18:46;101317.10;;;7.71;100.00
63281;BME280;49406;51.044;3.766;2023-04-25T02:21:20;101318.02;;;7.66;100.00
63281;BME280;49406;51.044;3.766;2023-04-25T02:23:55;101319.52;;;7.63;100.00
63281;BME280;49406;51.044;3.766;2023-04-25T02:26:29;101317.86;;;7.60;100.00
63281;BME280;49406;51.044;3.766;2023-04-25T02:29:04;101322.22;;;7.60;100.00
63281;BME280;49406;51.044;3.766;2023-04-25T02:31:38;101320.20;;;7.63;100.00
63281;BME280;49406;51.044;3.766;2023-04-25T02:34:13;101316.66;;;7.60;100.00
63281;BME280;49406;51.044;3.766;2023-04-25T02:36:47;101321.23;;;7.56;100.00
63281;BME280;49406;51.044;3.766;2023-04-25T02:39:22;101319.86;;;7.51;100.00
63281;BME280;49406;51.044;3.766;2023-04-25T02:41:58;101318.33;;;7.45;100.00
63281;BME280;49406;51.044;3.766;2023-04-25T02:44:34;101324.65;;;7.41;100.00
63281;BME280;49406;51.044;3.766;2023-04-25T02:47:08;101326.73;;;7.36;100.00
63281;BME280;49406;51.044;3.766;2023-04-25T02:49:42;101327.99;;;7.31;100.00
63281;BME280;49406;51.044;3.766;2023-04-25T02:52:18;101322.30;;;7.26;100.00
63281;BME280;49406;51.044;3.766;2023-04-25T02:54:52;101322.22;;;7.23;100.00
63281;BME280;49406;51.044;3.766;2023-04-25T02:57:27;101314.91;;;7.30;100.00
63281;BME280;49406;51.044;3.766;2023-04-25T03:00:02;101317.47;;;7.28;100.00
63281;BME280;49406;51.044;3.766;2023-04-25T03:02:39;101323.70;;;7.27;100.00
63281;BME280;49406;51.044;3.766;2023-04-25T03:05:13;101326.77;;;7.24;100.00
63281;BME280;49406;51.044;3.766;2023-04-25T03:07:48;101328.04;;;7.21;100.00
63281;BME280;49406;51.044;3.766;2023-04-25T03:10:22;101323.63;;;7.19;100.00
63281;BME280;49406;51.044;3.766;2023-04-25T03:12:57;101322.32;;;7.16;100.00
63281;BME280;49406;51.044;3.766;2023-04-25T03:15:31;101319.59;;;7.11;100.00
63281;BME280;49406;51.044;3.766;2023-04-25T03:18:06;101318.69;;;7.10;100.00
63281;BME280;49406;51.044;3.766;2023-04-25T03:20:41;101321.08;;;7.15;100.00
63281;BME280;49406;51.044;3.766;2023-04-25T03:23:15;101321.93;;;7.14;100.00
63281;BME280;49406;51.044;3.766;2023-04-25T03:25:50;101321.94;;;7.15;100.00
63281;BME280;49406;51.044;3.766;2023-04-25T03:28:25;101324.69;;;7.13;100.00
63281;BME280;49406;51.044;3.766;2023-04-25T03:30:59;101330.55;;;7.12;100.00
63281;BME280;49406;51.044;3.766;2023-04-25T03:33:34;101330.42;;;7.13;100.00
63281;BME280;49406;51.044;3.766;2023-04-25T03:36:09;101333.90;;;7.13;100.00
63281;BME280;49406;51.044;3.766;2023-04-25T03:38:44;101338.59;;;7.20;100.00
63281;BME280;49406;51.044;3.766;2023-04-25T03:41:18;101338.30;;;7.22;100.00
63281;BME280;49406;51.044;3.766;2023-04-25T03:43:53;101339.48;;;7.20;100.00
63281;BME280;49406;51.044;3.766;2023-04-25T03:46:27;101344.00;;;7.14;100.00
63281;BME280;49406;51.044;3.766;2023-04-25T03:49:02;101346.70;;;7.11;100.00
63281;BME280;49406;51.044;3.766;2023-04-25T03:51:36;101342.41;;;7.07;100.00
63281;BME280;49406;51.044;3.766;2023-04-25T03:54:10;101346.80;;;7.04;100.00
63281;BME280;49406;51.044;3.766;2023-04-25T03:56:45;101353.29;;;7.00;100.00
63281;BME280;49406;51.044;3.766;2023-04-25T03:59:19;101356.65;;;6.95;100.00
63281;BME280;49406;51.044;3.766;2023-04-25T04:01:54;101359.11;;;6.96;100.00
63281;BME280;49406;51.044;3.766;2023-04-25T04:04:28;101361.05;;;7.04;100.00
63281;BME280;49406;51.044;3.766;2023-04-25T04:07:03;101363.86;;;7.04;100.00
63281;BME280;49406;51.044;3.766;2023-04-25T04:09:38;101367.13;;;7.03;99.88
63281;BME280;49406;51.044;3.766;2023-04-25T04:12:10;101366.85;;;7.00;99.89
63281;BME280;49406;51.044;3.766;2023-04-25T04:14:45;101366.45;;;6.98;99.99
63281;BME280;49406;51.044;3.766;2023-04-25T04:17:20;101368.01;;;6.98;100.00
63281;BME280;49406;51.044;3.766;2023-04-25T04:19:54;101369.52;;;6.95;100.00
63281;BME280;49406;51.044;3.766;2023-04-25T04:22:29;101368.62;;;6.95;100.00
63281;BME280;49406;51.044;3.766;2023-04-25T04:25:02;101374.81;;;7.04;100.00
63281;BME280;49406;51.044;3.766;2023-04-25T04:27:38;101376.93;;;7.05;99.93
63281;BME280;49406;51.044;3.766;2023-04-25T04:30:14;101375.45;;;7.02;100.00
63281;BME280;49406;51.044;3.766;2023-04-25T04:32:48;101374.83;;;6.99;100.00
63281;BME280;49406;51.044;3.766;2023-04-25T04:35:21;101376.66;;;6.97;100.00
63281;BME280;49406;51.044;3.766;2023-04-25T04:44:38;101383.11;;;6.97;99.96
63281;BME280;49406;51.044;3.766;2023-04-25T04:47:13;101390.35;;;7.06;99.17
63281;BME280;49406;51.044;3.766;2023-04-25T04:49:47;101392.49;;;7.07;98.64
63281;BME280;49406;51.044;3.766;2023-04-25T04:52:22;101393.27;;;7.05;98.98
63281;BME280;49406;51.044;3.766;2023-04-25T04:54:56;101394.70;;;7.01;99.28
63281;BME280;49406;51.044;3.766;2023-04-25T04:57:31;101399.17;;;6.99;98.95
63281;BME280;49406;51.044;3.766;2023-04-25T05:00:09;101403.30;;;6.97;99.23
63281;BME280;49406;51.044;3.766;2023-04-25T05:02:44;101402.19;;;6.96;99.48
63281;BME280;49406;51.044;3.766;2023-04-25T05:05:18;101404.17;;;6.91;99.78
63281;BME280;49406;51.044;3.766;2023-04-25T05:07:53;101405.11;;;6.94;99.90
63281;BME280;49406;51.044;3.766;2023-04-25T05:10:28;101408.77;;;7.00;99.81
63281;BME280;49406;51.044;3.766;2023-04-25T05:13:02;101411.69;;;6.99;99.88
63281;BME280;49406;51.044;3.766;2023-04-25T05:15:37;101418.20;;;6.96;100.00
63281;BME280;49406;51.044;3.766;2023-04-25T05:18:11;101425.30;;;6.95;100.00
63281;BME280;49406;51.044;3.766;2023-04-25T05:20:46;101431.80;;;6.97;100.00
63281;BME280;49406;51.044;3.766;2023-04-25T05:23:20;101434.88;;;7.02;100.00
63281;BME280;49406;51.044;3.766;2023-04-25T05:25:55;101435.92;;;7.06;100.00
63281;BME280;49406;51.044;3.766;2023-04-25T05:28:29;101438.98;;;7.10;100.00
63281;BME280;49406;51.044;3.766;2023-04-25T05:31:04;101441.58;;;7.15;100.00
63281;BME280;49406;51.044;3.766;2023-04-25T05:33:39;101439.35;;;7.27;99.97
63281;BME280;49406;51.044;3.766;2023-04-25T05:36:13;101440.55;;;7.32;99.54
63281;BME280;49406;51.044;3.766;2023-04-25T05:38:47;101446.56;;;7.35;99.93
63281;BME280;49406;51.044;3.766;2023-04-25T05:41:22;101449.73;;;7.37;99.93
63281;BME280;49406;51.044;3.766;2023-04-25T05:43:56;101454.14;;;7.38;99.72
63281;BME280;49406;51.044;3.766;2023-04-25T05:46:31;101457.19;;;7.41;100.00
63281;BME280;49406;51.044;3.766;2023-04-25T05:49:05;101460.98;;;7.45;99.59
63281;BME280;49406;51.044;3.766;2023-04-25T05:51:40;101462.84;;;7.49;99.37
63281;BME280;49406;51.044;3.766;2023-04-25T05:54:14;101469.73;;;7.53;99.14
63281;BME280;49406;51.044;3.766;2023-04-25T05:56:49;101471.02;;;7.61;99.14
63281;BME280;49406;51.044;3.766;2023-04-25T05:59:23;101476.34;;;7.76;98.15
63281;BME280;49406;51.044;3.766;2023-04-25T06:01:58;101480.66;;;7.81;96.97
63281;BME280;49406;51.044;3.766;2023-04-25T06:04:33;101490.77;;;7.81;96.59
63281;BME280;49406;51.044;3.766;2023-04-25T06:07:08;101487.85;;;7.82;97.04
63281;BME280;49406;51.044;3.766;2023-04-25T06:09:43;101486.86;;;7.85;96.30
63281;BME280;49406;51.044;3.766;2023-04-25T06:12:17;101492.52;;;7.88;96.12
63281;BME280;49406;51.044;3.766;2023-04-25T06:14:52;101495.32;;;7.94;96.34
63281;BME280;49406;51.044;3.766;2023-04-25T06:17:27;101495.81;;;7.99;94.47
63281;BME280;49406;51.044;3.766;2023-04-25T06:20:02;101498.45;;;8.06;91.96
63281;BME280;49406;51.044;3.766;2023-04-25T06:22:37;101502.66;;;8.20;90.22
63281;BME280;49406;51.044;3.766;2023-04-25T06:25:12;101502.02;;;8.27;90.61
63281;BME280;49406;51.044;3.766;2023-04-25T06:27:46;101509.10;;;8.31;89.31
63281;BME280;49406;51.044;3.766;2023-04-25T06:30:21;101511.58;;;8.38;89.25
63281;BME280;49406;51.044;3.766;2023-04-25T06:32:58;101513.06;;;8.40;85.62
63281;BME280;49406;51.044;3.766;2023-04-25T06:35:33;101514.52;;;8.43;86.17
63281;BME280;49406;51.044;3.766;2023-04-25T06:38:07;101519.95;;;8.44;83.77
63281;BME280;49406;51.044;3.766;2023-04-25T06:47:21;101530.08;;;8.58;81.20
63281;BME280;49406;51.044;3.766;2023-04-25T06:49:56;101531.53;;;8.54;82.56
63281;BME280;49406;51.044;3.766;2023-04-25T06:52:30;101527.84;;;8.52;81.17
63281;BME280;49406;51.044;3.766;2023-04-25T06:55:06;101532.22;;;8.53;81.84
63281;BME280;49406;51.044;3.766;2023-04-25T06:57:40;101537.44;;;8.53;80.48
63281;BME280;49406;51.044;3.766;2023-04-25T07:00:17;101536.03;;;8.52;80.72
63281;BME280;49406;51.044;3.766;2023-04-25T07:02:51;101540.89;;;8.57;82.01
63281;BME280;49406;51.044;3.766;2023-04-25T07:05:26;101543.04;;;8.66;82.29
63281;BME280;49406;51.044;3.766;2023-04-25T07:08:00;101550.92;;;8.81;82.22
63281;BME280;49406;51.044;3.766;2023-04-25T07:10:36;101554.70;;;8.98;81.73
63281;BME280;49406;51.044;3.766;2023-04-25T07:13:11;101563.02;;;9.03;81.64
63281;BME280;49406;51.044;3.766;2023-04-25T07:15:46;101565.27;;;9.02;80.58
63281;BME280;49406;51.044;3.766;2023-04-25T07:18:21;101562.73;;;9.12;81.19
63281;BME280;49406;51.044;3.766;2023-04-25T07:20:56;101562.39;;;9.48;78.99
63281;BME280;49406;51.044;3.766;2023-04-25T07:23:30;101561.62;;;9.82;78.13
63281;BME280;49406;51.044;3.766;2023-04-25T07:26:05;101572.27;;;10.45;76.86
63281;BME280;49406;51.044;3.766;2023-04-25T07:28:40;101575.77;;;10.89;72.13
63281;BME280;49406;51.044;3.766;2023-04-25T07:31:14;101583.23;;;11.05;72.45
63281;BME280;49406;51.044;3.766;2023-04-25T07:33:50;101584.04;;;11.02;71.35
63281;BME280;49406;51.044;3.766;2023-04-25T07:36:25;101590.91;;;10.94;70.55
63281;BME280;49406;51.044;3.766;2023-04-25T07:39:00;101590.27;;;10.89;68.19
63281;BME280;49406;51.044;3.766;2023-04-25T07:41:34;101586.71;;;10.67;67.55
63281;BME280;49406;51.044;3.766;2023-04-25T07:44:09;101587.08;;;10.42;68.96
63281;BME280;49406;51.044;3.766;2023-04-25T07:46:43;101586.59;;;10.35;69.96
63281;BME280;49406;51.044;3.766;2023-04-25T07:49:18;101586.44;;;10.53;70.08
63281;BME280;49406;51.044;3.766;2023-04-25T07:51:53;101587.88;;;10.73;69.75
63281;BME280;49406;51.044;3.766;2023-04-25T07:54:27;101590.77;;;10.96;67.21
63281;BME280;49406;51.044;3.766;2023-04-25T07:57:02;101594.84;;;11.18;65.94
63281;BME280;49406;51.044;3.766;2023-04-25T07:59:36;101602.14;;;11.35;64.38
63281;BME280;49406;51.044;3.766;2023-04-25T08:02:11;101608.98;;;11.58;63.89
63281;BME280;49406;51.044;3.766;2023-04-25T08:04:45;101607.77;;;11.80;63.42
63281;BME280;49406;51.044;3.766;2023-04-25T08:07:22;101603.96;;;12.05;63.29
63281;BME280;49406;51.044;3.766;2023-04-25T08:09:57;101609.59;;;12.32;63.42
63281;BME280;49406;51.044;3.766;2023-04-25T08:12:31;101610.78;;;12.71;61.22
63281;BME280;49406;51.044;3.766;2023-04-25T08:15:08;101620.96;;;12.87;58.59
63281;BME280;49406;51.044;3.766;2023-04-25T08:17:43;101624.09;;;12.68;56.54
63281;BME280;49406;51.044;3.766;2023-04-25T08:20:18;101623.60;;;12.44;55.88
63281;BME280;49406;51.044;3.766;2023-04-25T08:22:52;101630.68;;;12.23;56.40
63281;BME280;49406;51.044;3.766;2023-04-25T08:25:27;101640.44;;;11.95;57.36
63281;BME280;49406;51.044;3.766;2023-04-25T08:28:02;101642.30;;;11.69;57.85
63281;BME280;49406;51.044;3.766;2023-04-25T08:30:38;101646.95;;;11.45;57.31
63281;BME280;49406;51.044;3.766;2023-04-25T08:33:13;101649.65;;;11.49;56.43
63281;BME280;49406;51.044;3.766;2023-04-25T08:35:47;101656.63;;;11.68;56.08
63281;BME280;49406;51.044;3.766;2023-04-25T08:38:22;101650.03;;;11.61;56.64
63281;BME280;49406;51.044;3.766;2023-04-25T08:40:58;101642.05;;;11.97;57.14
63281;BME280;49406;51.044;3.766;2023-04-25T08:43:36;101650.65;;;12.34;53.77
63281;BME280;49406;51.044;3.766;2023-04-25T08:46:13;101651.45;;;12.68;52.80
63281;BME280;49406;51.044;3.766;2023-04-25T08:48:50;101652.03;;;13.17;53.36
63281;BME280;49406;51.044;3.766;2023-04-25T08:51:27;101651.45;;;13.65;50.24
63281;BME280;49406;51.044;3.766;2023-04-25T08:54:10;101654.38;;;13.80;49.09
63281;BME280;49406;51.044;3.766;2023-04-25T08:56:46;101670.70;;;13.38;47.44
63281;BME280;49406;51.044;3.766;2023-04-25T08:59:22;101674.00;;;13.34;49.75
63281;BME280;49406;51.044;3.766;2023-04-25T09:01:58;101674.24;;;13.79;49.53
63281;BME280;49406;51.044;3.766;2023-04-25T09:04:32;101674.10;;;14.08;48.35
63281;BME280;49406;51.044;3.766;2023-04-25T09:07:07;101676.33;;;14.26;46.42
63281;BME280;49406;51.044;3.766;2023-04-25T09:09:41;101679.25;;;14.15;45.03
63281;BME280;49406;51.044;3.766;2023-04-25T09:12:16;101686.38;;;13.62;45.32
63281;BME280;49406;51.044;3.766;2023-04-25T09:15:06;101693.71;;;12.94;47.15
63281;BME280;49406;51.044;3.766;2023-04-25T09:17:42;101706.45;;;12.37;49.99
63281;BME280;49406;51.044;3.766;2023-04-25T09:20:17;101709.41;;;11.81;58.96
63281;BME280;49406;51.044;3.766;2023-04-25T09:23:02;101719.39;;;11.24;64.77
63281;BME280;49406;51.044;3.766;2023-04-25T09:25:38;101727.64;;;10.66;69.90
63281;BME280;49406;51.044;3.766;2023-04-25T09:28:13;101730.68;;;10.03;73.90
63281;BME280;49406;51.044;3.766;2023-04-25T09:30:47;101734.13;;;9.47;77.58
63281;BME280;49406;51.044;3.766;2023-04-25T09:33:23;101736.81;;;9.18;80.79
63281;BME280;49406;51.044;3.766;2023-04-25T09:36:05;101737.70;;;9.11;81.66
63281;BME280;49406;51.044;3.766;2023-04-25T09:38:43;101738.44;;;9.20;81.47
63281;BME280;49406;51.044;3.766;2023-04-25T09:41:24;101741.64;;;9.34;82.27
63281;BME280;49406;51.044;3.766;2023-04-25T09:43:59;101745.13;;;9.47;78.55
63281;BME280;49406;51.044;3.766;2023-04-25T09:46:36;101750.20;;;9.47;75.92
63281;BME280;49406;51.044;3.766;2023-04-25T09:49:11;101753.49;;;9.53;73.49
63281;BME280;49406;51.044;3.766;2023-04-25T09:51:56;101760.66;;;9.66;70.45
63281;BME280;49406;51.044;3.766;2023-04-25T09:54:31;101764.55;;;9.81;69.30
63281;BME280;49406;51.044;3.766;2023-04-25T09:57:13;101771.73;;;9.96;67.65
63281;BME280;49406;51.044;3.766;2023-04-25T09:59:50;101779.23;;;10.23;66.15
63281;BME280;49406;51.044;3.766;2023-04-25T10:02:26;101774.47;;;10.49;63.45
63281;BME280;49406;51.044;3.766;2023-04-25T10:05:02;101781.31;;;10.73;62.33
63281;BME280;49406;51.044;3.766;2023-04-25T10:07:39;101777.77;;;11.03;63.06
63281;BME280;49406;51.044;3.766;2023-04-25T10:10:14;101779.02;;;11.56;62.97
63281;BME280;49406;51.044;3.766;2023-04-25T10:12:50;101783.95;;;11.85;59.15
63281;BME280;49406;51.044;3.766;2023-04-25T10:15:26;101785.13;;;11.74;56.31
63281;BME280;49406;51.044;3.766;2023-04-25T10:18:01;101779.34;;;11.74;57.22
63281;BME280;49406;51.044;3.766;2023-04-25T10:20:36;101786.73;;;11.83;56.61
63281;BME280;49406;51.044;3.766;2023-04-25T10:23:13;101785.27;;;11.89;56.62
63281;BME280;49406;51.044;3.766;2023-04-25T10:25:50;101787.41;;;12.01;57.60
63281;BME280;49406;51.044;3.766;2023-04-25T10:28:25;101788.44;;;12.21;58.29
63281;BME280;49406;51.044;3.766;2023-04-25T10:31:02;101788.29;;;12.11;58.56
63281;BME280;49406;51.044;3.766;2023-04-25T10:33:38;101783.23;;;11.75;60.50
63281;BME280;49406;51.044;3.766;2023-04-25T10:36:14;101786.02;;;11.47;61.94
63281;BME280;49406;51.044;3.766;2023-04-25T10:38:50;101788.90;;;11.16;62.91
63281;BME280;49406;51.044;3.766;2023-04-25T10:41:25;101792.96;;;10.94;64.14
63281;BME280;49406;51.044;3.766;2023-04-25T10:44:01;101795.22;;;10.85;64.46
63281;BME280;49406;51.044;3.766;2023-04-25T10:46:38;101802.55;;;10.76;64.15
63281;BME280;49406;51.044;3.766;2023-04-25T10:49:30;101802.17;;;10.68;62.75
63281;BME280;49406;51.044;3.766;2023-04-25T10:52:24;101803.92;;;10.60;61.00
63281;BME280;49406;51.044;3.766;2023-04-25T10:54:59;101810.05;;;10.53;61.07
63281;BME280;49406;51.044;3.766;2023-04-25T10:57:41;101805.45;;;10.58;61.52
63281;BME280;49406;51.044;3.766;2023-04-25T11:00:19;101805.32;;;10.67;59.91
63281;BME280;49406;51.044;3.766;2023-04-25T11:02:59;101808.45;;;10.75;59.46
63281;BME280;49406;51.044;3.766;2023-04-25T11:05:35;101809.27;;;10.79;59.42
63281;BME280;49406;51.044;3.766;2023-04-25T11:08:12;101805.27;;;10.88;59.44
63281;BME280;49406;51.044;3.766;2023-04-25T11:10:49;101804.13;;;11.08;58.77
63281;BME280;49406;51.044;3.766;2023-04-25T11:13:24;101799.29;;;11.10;56.49
63281;BME280;49406;51.044;3.766;2023-04-25T11:16:03;101798.48;;;11.23;56.83
63281;BME280;49406;51.044;3.766;2023-04-25T11:18:43;101801.93;;;11.37;56.48
63281;BME280;49406;51.044;3.766;2023-04-25T11:21:18;101805.23;;;11.53;53.84
63281;BME280;49406;51.044;3.766;2023-04-25T11:23:51;101802.02;;;11.77;53.07
63281;BME280;49406;51.044;3.766;2023-04-25T11:26:26;101806.71;;;11.93;54.48
63281;BME280;49406;51.044;3.766;2023-04-25T11:29:01;101807.46;;;12.06;52.81
63281;BME280;49406;51.044;3.766;2023-04-25T11:31:36;101812.39;;;12.38;52.47
63281;BME280;49406;51.044;3.766;2023-04-25T11:34:10;101804.81;;;13.06;48.32
63281;BME280;49406;51.044;3.766;2023-04-25T11:36:46;101806.17;;;13.42;46.36
63281;BME280;49406;51.044;3.766;2023-04-25T11:39:21;101802.65;;;13.43;45.58
63281;BME280;49406;51.044;3.766;2023-04-25T11:41:56;101798.45;;;13.44;46.94
63281;BME280;49406;51.044;3.766;2023-04-25T11:44:31;101803.81;;;13.66;48.03
63281;BME280;49406;51.044;3.766;2023-04-25T11:47:06;101801.83;;;13.79;48.86
63281;BME280;49406;51.044;3.766;2023-04-25T11:49:40;101799.83;;;13.73;48.59
63281;BME280;49406;51.044;3.766;2023-04-25T11:52:15;101799.27;;;13.69;48.81
63281;BME280;49406;51.044;3.766;2023-04-25T11:54:49;101802.24;;;13.68;48.06
63281;BME280;49406;51.044;3.766;2023-04-25T11:57:24;101805.48;;;13.58;46.63
63281;BME280;49406;51.044;3.766;2023-04-25T12:00:07;101807.17;;;13.24;45.42
63281;BME280;49406;51.044;3.766;2023-04-25T12:02:42;101810.16;;;13.24;44.32
63281;BME280;49406;51.044;3.766;2023-04-25T12:05:17;101813.02;;;13.43;43.06
63281;BME280;49406;51.044;3.766;2023-04-25T12:07:52;101813.46;;;13.49;43.30
63281;BME280;49406;51.044;3.766;2023-04-25T12:10:27;101812.48;;;13.40;44.19
63281;BME280;49406;51.044;3.766;2023-04-25T12:13:17;101817.63;;;13.07;46.05
63281;BME280;49406;51.044;3.766;2023-04-25T12:15:52;101811.48;;;12.94;47.88
63281;BME280;49406;51.044;3.766;2023-04-25T12:18:28;101810.09;;;13.34;48.91
63281;BME280;49406;51.044;3.766;2023-04-25T12:21:05;101814.23;;;13.72;48.19
63281;BME280;49406;51.044;3.766;2023-04-25T12:23:41;101815.83;;;13.90;47.66
63281;BME280;49406;51.044;3.766;2023-04-25T12:26:16;101814.75;;;14.06;47.08
63281;BME280;49406;51.044;3.766;2023-04-25T12:28:54;101810.39;;;14.30;47.47
63281;BME280;49406;51.044;3.766;2023-04-25T12:31:28;101814.98;;;14.51;47.00
63281;BME280;49406;51.044;3.766;2023-04-25T12:34:03;101816.46;;;14.58;46.62
63281;BME280;49406;51.044;3.766;2023-04-25T12:36:38;101824.91;;;14.39;46.62
63281;BME280;49406;51.044;3.766;2023-04-25T12:39:17;101826.56;;;14.09;46.95
63281;BME280;49406;51.044;3.766;2023-04-25T12:41:53;101833.86;;;13.52;47.83
63281;BME280;49406;51.044;3.766;2023-04-25T12:44:28;101835.70;;;12.94;48.47
63281;BME280;49406;51.044;3.766;2023-04-25T12:47:02;101831.16;;;12.72;49.21
63281;BME280;49406;51.044;3.766;2023-04-25T12:49:37;101830.90;;;12.55;49.38
63281;BME280;49406;51.044;3.766;2023-04-25T12:52:11;101829.95;;;12.50;50.09
63281;BME280;49406;51.044;3.766;2023-04-25T12:54:46;101828.56;;;12.73;50.61
63281;BME280;49406;51.044;3.766;2023-04-25T12:57:20;101830.56;;;12.77;50.42
63281;BME280;49406;51.044;3.766;2023-04-25T12:59:55;101831.59;;;12.54;52.00
63281;BME280;49406;51.044;3.766;2023-04-25T13:02:29;101835.15;;;12.46;52.83
63281;BME280;49406;51.044;3.766;2023-04-25T13:05:05;101837.54;;;12.21;52.51
63281;BME280;49406;51.044;3.766;2023-04-25T13:07:39;101835.56;;;11.99;53.06
63281;BME280;49406;51.044;3.766;2023-04-25T13:10:14;101837.67;;;11.81;53.34
63281;BME280;49406;51.044;3.766;2023-04-25T13:12:48;101837.54;;;11.75;53.52
63281;BME280;49406;51.044;3.766;2023-04-25T13:15:23;101839.08;;;11.73;52.05
63281;BME280;49406;51.044;3.766;2023-04-25T13:17:58;101836.44;;;11.63;52.64
63281;BME280;49406;51.044;3.766;2023-04-25T13:20:33;101839.42;;;11.81;53.46
63281;BME280;49406;51.044;3.766;2023-04-25T13:23:07;101839.62;;;11.91;53.67
63281;BME280;49406;51.044;3.766;2023-04-25T13:25:42;101842.69;;;11.95;54.93
63281;BME280;49406;51.044;3.766;2023-04-25T13:28:16;101845.79;;;11.93;55.40
63281;BME280;49406;51.044;3.766;2023-04-25T13:30:51;101847.74;;;11.94;55.87
63281;BME280;49406;51.044;3.766;2023-04-25T13:33:25;101839.43;;;12.00;55.48
63281;BME280;49406;51.044;3.766;2023-04-25T13:36:02;101843.11;;;11.99;55.87
63281;BME280;49406;51.044;3.766;2023-04-25T13:38:37;101836.66;;;11.83;55.17
63281;BME280;49406;51.044;3.766;2023-04-25T13:41:12;101839.99;;;11.66;56.56
63281;BME280;49406;51.044;3.766;2023-04-25T13:43:51;101843.01;;;11.51;57.61
63281;BME280;49406;51.044;3.766;2023-04-25T13:46:25;101843.77;;;11.45;58.29
63281;BME280;49406;51.044;3.766;2023-04-25T13:48:59;101844.46;;;11.44;58.34
63281;BME280;49406;51.044;3.766;2023-04-25T13:51:34;101842.76;;;11.47;58.91